Date,TemperatureHighF,TemperatureAvgF,TemperatureLowF,DewpointHighF,DewpointAvgF,DewpointLowF,HumidityHigh,HumidityAvg,HumidityLow,PressureMaxIn,PressureMinIn,WindSpeedMaxMPH,WindSpeedAvgMPH,GustSpeedMaxMPH,PrecipitationSumIn
2014-1-1,43,33,24,27,20,12,63,58,47,30.56,30.35,8,1,8,0.00
2014-1-2,40,34,25,22,-4,-23,52,21,9,30.35,29.73,16,6,16,0.00
2014-1-3,25,17,9,10,-6,-22,66,41,12,30.61,29.69,13,5,13,0.00
2014-1-4,36,19,5,20,8,-3,69,62,48,30.69,30.45,6,1,6,0.00
2014-1-5,49,36,20,14,2,-13,62,27,1,30.46,29.90,8,1,8,0.00
2014-1-6,54,42,18,28,2,-14,64,21,1,29.94,29.58,14,4,14,0.00
2014-1-7,18,9,4,0,-8,-13,55,46,39,30.55,29.95,17,6,17,0.00
2014-1-8,26,17,10,8,2,-4,58,51,40,30.73,30.55,8,2,8,0.00
2014-1-9,38,27,22,21,14,8,66,58,49,30.80,30.64,6,0,6,0.00
2014-1-10,42,34,25,18,0,-14,65,29,1,30.71,30.32,2,0,2,0.00
2014-1-11,56,50,39,0,-4,-13,1,1,1,30.32,29.53,10,2,10,0.00
2014-1-12,52,43,34,31,22,-7,63,47,1,30.25,29.57,12,3,12,0.00
2014-1-13,56,41,28,40,17,-16,58,39,6,30.30,30.04,7,1,7,0.00
2014-1-14,49,45,41,20,-5,-11,34,6,1,30.04,29.80,6,1,6,0.00
2014-1-15,44,39,35,-9,-13,-16,1,1,1,30.16,30.00,5,1,5,0.00
2014-1-16,41,38,33,16,4,-15,49,24,1,30.10,29.98,6,1,6,0.00
2014-1-17,52,38,26,37,15,-11,59,41,14,30.14,30.00,7,1,7,0.00
2014-1-18,44,36,24,28,5,-15,64,34,1,30.03,29.80,11,3,12,0.00
2014-1-19,44,32,23,27,19,13,66,60,48,30.02,29.81,9,2,9,0.00
2014-1-20,52,40,33,32,27,22,64,59,44,30.02,29.73,10,2,10,0.00
2014-1-21,37,25,13,25,9,-12,66,51,27,30.10,29.90,15,4,15,0.00
2014-1-22,19,12,7,4,-1,-8,68,55,38,30.14,29.87,14,5,14,0.00
2014-1-23,23,13,7,6,0,-4,65,57,47,30.44,30.13,10,3,10,0.00
2014-1-24,21,14,8,4,2,0,69,58,43,30.54,30.28,9,2,9,0.00
2014-1-25,31,24,16,18,11,5,66,58,49,30.25,29.61,8,3,8,0.00
2014-1-26,32,25,16,21,10,2,66,54,43,30.09,29.65,9,3,9,0.00
2014-1-27,48,36,23,33,20,3,64,53,39,30.22,29.78,10,3,10,0.00
2014-1-28,22,18,14,3,0,-2,58,45,41,30.52,30.23,7,3,7,0.00
2014-1-29,24,16,12,6,3,-1,70,56,36,30.45,30.28,8,2,8,0.00
2014-1-30,34,18,6,15,6,-3,68,58,46,30.62,30.36,5,1,5,0.00
2014-1-31,45,31,17,26,18,8,68,59,37,30.38,30.25,4,1,4,0.00
2014-2-1,49,37,30,34,25,19,66,62,53,30.47,30.17,4,1,4,0.00
2014-2-2,58,44,32,41,23,-11,64,46,11,30.20,30.06,3,1,3,0.00
2014-2-3,45,35,31,33,2,-18,64,28,9,30.44,30.18,6,2,6,0.00
2014-2-4,38,32,25,26,14,3,61,48,30,30.61,30.38,4,1,4,0.00
2014-2-5,36,34,32,16,-12,-18,46,11,1,30.35,29.77,8,4,8,0.00
2014-2-6,34,28,24,20,17,13,66,62,56,30.42,30.10,9,3,9,0.00
2014-2-7,36,28,22,20,16,10,65,60,49,30.49,30.37,7,1,7,0.00
2014-2-8,31,26,23,15,13,10,66,56,43,30.49,30.29,2,1,2,0.00
2014-2-9,35,27,20,20,14,10,66,59,48,30.31,30.14,4,1,4,0.00
2014-2-10,30,24,18,14,10,5,67,54,44,30.42,30.15,8,2,8,0.00
2014-2-11,28,20,12,9,6,3,68,56,43,30.59,30.42,7,2,7,0.00
2014-2-12,33,22,11,20,11,2,67,62,57,30.69,30.40,8,2,8,0.00
2014-2-13,34,32,28,15,-12,-18,55,14,3,30.38,29.17,19,7,19,0.00
2014-2-14,44,35,29,29,10,-20,64,39,1,29.92,29.17,14,4,14,0.00
2014-2-15,38,33,28,20,5,-20,66,33,2,29.93,29.66,9,3,9,0.00
2014-2-16,31,25,20,18,14,11,68,61,51,30.23,29.90,10,4,10,0.00
2014-2-17,37,25,17,15,10,6,65,54,33,30.53,30.25,7,2,7,0.00
2014-2-18,48,37,26,36,22,6,68,57,27,30.46,30.09,8,2,8,0.00
2014-2-19,46,38,29,24,2,-14,57,24,1,30.24,29.84,5,1,5,0.00
2014-2-20,53,41,31,38,23,-8,64,48,18,30.41,30.13,8,1,8,0.00
2014-2-21,57,44,37,19,-3,-12,40,12,1,30.13,29.81,6,1,6,0.00
2014-2-22,62,46,33,36,16,-16,61,33,1,30.22,30.07,10,2,10,0.00
2014-2-23,60,47,37,42,32,25,63,57,45,30.17,30.00,3,1,3,0.00
2014-2-24,51,39,33,30,-3,-18,64,17,1,30.20,29.97,8,4,8,0.00
2014-2-25,53,40,29,-2,-12,-21,1,1,1,30.23,30.09,7,2,7,0.00
2014-2-26,100,57,-39,34,1,-73,21,3,1,30.03,30.02,1,0,1,0.00
2014-2-27,124,3,-39,52,-38,-75,99,24,1,30.17,29.79,8,2,8,0.00
2014-2-28,0,-16,-40,0,-24,-68,99,56,16,30.47,30.29,8,2,8,0.00
2014-3-1,-39,-39,-39,-51,-52,-53,48,46,44,30.36,30.31,2,1,2,0.00
2014-3-2,-39,-39,-39,-53,-54,-54,44,42,41,30.31,30.29,0,0,0,0.00
2014-3-8,57,51,48,42,36,34,61,56,48,30.05,30.00,0,0,0,0.00
2014-3-9,48,43,39,35,25,19,65,51,33,30.17,30.03,0,0,0,0.00
2014-3-10,57,44,36,36,28,20,64,52,45,30.12,29.79,0,0,0,0.00
2014-3-11,69,53,42,41,36,32,66,53,34,29.84,29.72,0,0,0,0.00
2014-3-12,59,51,45,46,30,-4,66,49,1,29.83,29.18,0,0,0,0.00
2014-3-13,39,27,20,25,8,1,67,46,26,30.23,29.33,0,0,0,0.00
2014-3-14,53,34,20,32,16,1,62,48,33,30.38,30.06,0,0,0,0.00
2014-3-15,65,53,43,36,31,24,60,44,27,30.14,29.92,0,0,0,0.00
2014-3-16,47,39,34,25,16,10,52,39,27,30.34,30.15,0,0,0,0.00
2014-3-17,35,30,26,20,18,14,68,60,45,30.27,30.18,0,0,0,0.00
2014-3-18,52,37,32,31,24,18,67,59,41,30.42,30.25,0,0,0,0.00
2014-3-19,48,42,36,36,24,-7,67,54,7,30.43,29.97,0,0,0,0.00
2014-3-20,60,48,42,40,12,-11,65,27,1,30.05,29.88,0,0,0,0.00
2014-3-21,58,48,38,28,25,23,57,42,30,30.19,30.11,0,0,0,0.00
2014-3-22,71,52,35,43,33,23,67,50,30,30.18,29.90,0,0,0,0.00
2014-3-23,48,41,31,31,22,9,58,47,36,30.25,30.10,0,0,0,0.00
2014-3-24,41,30,22,11,8,5,50,40,29,30.40,30.25,0,0,0,0.00
2014-3-25,44,32,21,24,17,9,67,55,41,30.30,29.98,0,0,0,0.00
2014-3-26,40,32,27,23,13,6,67,45,30,30.38,29.87,0,0,0,0.00
2014-3-27,46,33,22,26,15,7,59,48,32,30.58,30.38,0,0,0,0.00
2014-3-28,64,51,36,51,39,23,66,63,55,30.43,30.12,0,0,0,0.00
2014-3-29,56,47,42,42,19,-9,59,36,3,30.30,29.77,0,0,0,0.00
2014-3-30,53,46,40,-2,-7,-12,2,1,1,29.76,29.57,0,0,0,0.00
2014-3-31,58,44,34,40,10,-17,62,29,1,30.20,29.77,0,0,0,0.00
2014-4-1,59,45,34,41,31,19,65,59,49,30.28,30.15,0,0,0,0.00
2014-4-2,62,48,40,47,24,4,59,41,20,30.28,30.18,0,0,0,0.00
2014-4-3,62,51,42,44,24,-8,62,40,11,30.26,30.13,0,0,0,0.00
2014-4-4,45,42,41,22,-3,-11,40,14,2,30.21,29.85,0,0,0,0.00
2014-4-5,57,48,40,40,15,-12,61,29,1,30.21,29.83,0,0,0,0.00
2014-4-6,62,45,34,37,29,23,65,54,37,30.37,30.22,0,0,0,0.00
2014-4-7,51,43,34,34,16,-9,62,37,1,30.36,29.81,0,0,0,0.00
2014-4-8,67,56,46,51,18,-8,58,24,1,29.81,29.58,0,0,0,0.00
2014-4-9,64,53,41,40,32,23,63,47,25,30.15,29.76,0,0,0,0.00
2014-4-10,63,51,35,44,33,24,63,50,38,30.38,30.16,0,0,0,0.00
2014-4-11,78,64,55,52,46,36,62,53,37,30.18,30.07,0,0,0,0.00
2014-4-12,72,61,52,48,41,27,62,49,37,30.37,30.15,0,0,0,0.00
2014-4-13,78,61,49,60,40,15,60,48,20,30.35,30.17,0,0,0,0.00
2014-4-14,78,68,60,60,47,30,60,48,31,30.19,30.03,0,0,0,0.00
2014-4-15,63,56,36,29,3,-14,29,6,1,30.03,29.69,0,0,0,0.00
2014-4-16,54,40,32,30,18,-16,65,45,12,30.67,30.02,0,0,0,0.00
2014-4-17,54,44,39,36,31,27,64,60,51,30.86,30.68,0,0,0,0.00
2014-4-18,54,44,40,40,31,25,64,61,53,30.73,30.41,0,0,0,0.00
2014-4-19,70,52,37,44,30,9,61,44,27,30.46,30.35,0,0,0,0.00
2014-4-20,57,50,42,40,35,30,63,57,47,30.64,30.46,0,0,0,0.00
2014-4-21,69,51,34,47,34,13,63,53,33,30.45,30.03,0,0,0,0.00
2014-4-22,72,58,41,55,38,8,60,49,22,30.02,29.66,0,0,0,0.00
2014-4-23,64,55,46,44,38,31,61,53,41,29.98,29.66,0,0,0,0.00
2014-4-24,65,52,40,30,24,18,60,37,18,30.15,29.99,0,0,0,0.00
2014-4-25,63,53,41,39,30,20,63,43,29,30.19,29.90,0,0,0,0.00
2014-4-26,68,54,46,50,26,-7,61,38,6,30.01,29.80,0,0,0,0.00
2014-4-27,64,52,40,40,28,4,60,41,20,30.24,30.01,0,0,0,0.00
2014-4-28,67,54,40,45,37,23,63,53,41,30.25,30.17,0,0,0,0.00
2014-4-29,53,47,42,40,27,9,61,46,25,30.51,30.25,0,0,0,0.00
2014-4-30,55,46,42,11,-4,-10,27,8,1,30.49,30.09,0,0,0,0.00
2014-5-1,79,64,54,57,16,-1,49,13,1,30.09,29.83,0,0,0,0.00
2014-5-2,72,62,54,47,30,0,58,33,1,30.00,29.84,0,0,0,0.00
2014-5-3,78,61,48,52,41,20,61,49,32,30.02,29.89,0,0,0,0.00
2014-5-4,69,58,49,44,30,8,58,37,17,29.95,29.81,0,0,0,0.00
2014-5-5,71,60,49,39,34,28,59,41,25,30.04,29.94,0,0,0,0.00
2014-5-6,72,59,46,48,39,28,60,48,36,30.20,30.00,0,0,0,0.00
2014-5-7,67,55,43,42,35,23,60,47,37,30.38,30.20,0,0,0,0.00
2014-5-8,61,54,50,26,3,-4,36,8,1,30.32,30.22,0,0,0,0.00
2014-5-9,60,56,52,4,0,-3,1,1,1,30.31,30.13,0,0,0,0.00
2014-5-10,85,67,55,66,25,-1,55,21,1,30.13,30.00,0,0,0,0.00
2014-5-11,85,71,60,54,35,3,58,28,1,30.24,30.03,0,0,0,0.00
2014-5-12,86,71,56,67,46,6,58,43,1,30.27,30.18,0,0,0,0.00
2014-5-13,66,61,52,49,28,4,57,32,1,30.41,30.16,0,0,0,0.00
2014-5-14,60,54,50,22,2,-4,30,8,1,30.44,30.36,0,0,0,0.00
2014-5-15,70,63,54,11,5,-1,1,1,1,30.36,30.22,0,0,0,0.00
2014-5-16,65,63,60,7,5,3,1,1,1,30.21,29.96,0,0,0,0.00
2014-5-17,72,62,52,55,26,-3,59,29,1,30.25,29.99,0,0,0,0.00
2014-5-18,68,59,46,50,35,-2,58,44,12,30.32,30.24,0,0,0,0.00
2014-5-19,73,59,46,49,38,26,60,47,30,30.36,30.21,0,0,0,0.00
2014-5-20,81,66,49,51,39,17,56,38,27,30.27,30.13,0,0,0,0.00
2014-5-21,79,68,62,57,51,44,58,55,47,30.15,30.05,0,0,0,0.00
2014-5-22,66,62,58,48,14,2,54,13,1,30.04,29.93,0,0,0,0.00
2014-5-23,69,61,57,12,4,1,11,2,1,30.08,29.96,0,0,0,0.00
2014-5-24,69,60,54,34,8,-2,28,7,1,30.23,30.05,0,0,0,0.00
2014-5-25,80,66,52,61,30,-3,57,28,1,30.24,30.17,0,0,0,0.00
2014-5-26,88,74,60,62,47,4,56,39,10,30.22,30.05,0,0,0,0.00
2014-5-27,89,77,68,66,58,47,57,52,42,30.07,29.93,0,0,0,0.00
2014-5-28,69,59,53,39,4,-2,33,4,1,30.29,29.93,0,0,0,0.00
2014-5-29,63,56,52,45,17,-2,52,25,6,30.36,30.28,0,0,0,0.00
2014-5-30,75,63,53,57,26,-2,55,29,2,30.29,30.13,0,0,0,0.00
2014-5-31,72,63,56,54,33,0,59,37,1,30.42,30.19,0,0,0,0.00
2014-6-1,76,64,49,52,36,-5,57,38,10,30.49,30.41,0,0,0,0.00
2014-6-2,80,68,50,60,47,18,58,48,25,30.42,30.19,0,0,0,0.00
2014-6-3,87,73,62,68,50,10,57,46,8,30.20,29.97,0,0,0,0.00
2014-6-4,80,71,64,58,25,6,48,16,1,30.00,29.88,0,0,0,0.00
2014-6-5,76,66,62,49,14,4,40,8,1,29.94,29.74,0,0,0,0.00
2014-6-6,76,68,58,57,40,2,55,39,8,30.09,29.93,0,0,0,0.00
2014-6-7,81,66,55,61,27,0,53,27,1,30.15,30.09,0,0,0,0.00
2014-6-9,67,67,67,8,8,8,1,1,1,30.08,30.07,0,0,0,0.00
2014-6-10,80,71,67,19,12,9,1,1,1,30.11,30.05,0,0,0,0.00
2014-6-11,68,63,60,10,5,3,1,1,1,30.25,30.11,0,0,0,0.00
2014-6-12,72,65,60,12,7,3,1,1,1,30.21,30.05,0,0,0,0.00
2014-6-13,79,71,65,18,12,7,1,1,1,30.05,29.87,0,0,0,0.00
2014-6-14,77,70,63,59,31,8,58,26,1,30.18,29.92,0,0,0,0.00
2014-6-15,80,68,55,61,40,-1,56,39,1,30.25,30.18,0,0,0,0.00
2014-6-16,80,71,58,62,34,2,55,28,1,30.30,30.21,0,0,0,0.00
2014-6-17,88,79,68,64,34,10,48,19,1,30.22,30.05,0,0,0,0.00
2014-6-18,92,84,75,69,50,15,55,34,1,30.10,29.97,0,0,0,0.00
2014-6-19,77,72,66,49,14,8,37,4,1,30.16,30.05,0,0,0,0.00
2014-6-20,82,72,60,59,37,3,55,29,1,30.15,30.05,0,0,0,0.00
2014-6-21,76,70,65,58,43,7,55,40,1,30.11,30.04,0,0,0,0.00
2014-6-22,78,70,61,60,31,4,54,26,1,30.18,30.05,0,0,0,0.00
2014-6-23,83,71,59,64,35,3,55,29,1,30.30,30.18,0,0,0,0.00
2014-6-24,83,73,61,61,36,4,50,28,1,30.31,30.18,0,0,0,0.00
2014-6-25,85,75,66,23,15,8,5,1,1,30.18,29.98,0,0,0,0.00
2014-6-26,86,77,68,66,30,10,51,17,1,30.07,29.95,0,0,0,0.00
2014-6-27,80,73,66,60,30,8,53,22,1,30.36,30.08,0,0,0,0.00
2014-6-28,86,73,60,66,37,3,54,30,1,30.42,30.36,0,0,0,0.00
2014-6-29,82,72,60,63,38,3,54,31,1,30.41,30.28,0,0,0,0.00
2014-6-30,83,74,65,57,19,7,42,8,1,30.28,30.11,0,0,0,0.00
2014-7-1,87,78,70,54,22,11,37,8,1,30.12,30.00,0,0,0,0.00
2014-7-2,90,81,73,42,20,13,19,3,1,30.10,29.99,0,0,0,0.00
2014-7-3,92,83,74,47,23,14,22,4,1,30.15,30.03,0,0,0,0.00
2014-7-4,74,70,66,54,18,8,50,10,1,30.17,30.02,0,0,0,0.00
2014-7-5,84,72,60,57,47,21,54,42,22,30.32,30.18,0,0,0,0.00
2014-7-6,87,76,62,64,50,6,53,43,10,30.28,30.11,0,0,0,0.00
2014-7-7,93,81,70,69,46,10,52,32,1,30.12,29.90,0,0,0,0.00
2014-7-8,95,82,69,74,44,10,52,27,1,29.99,29.86,0,0,0,0.00
2014-7-9,87,77,69,62,24,10,45,10,1,30.10,29.94,0,0,0,0.00
2014-7-10,80,74,70,54,20,11,40,9,1,30.28,30.10,0,0,0,0.00
2014-7-11,84,75,68,65,32,9,53,21,1,30.37,30.26,0,0,0,0.00
2014-7-12,83,75,66,62,21,8,50,9,1,30.37,30.29,0,0,0,0.00
2014-7-13,82,76,70,20,15,11,1,1,1,30.28,30.07,0,0,0,0.00
2014-7-14,85,77,73,22,16,13,1,1,1,30.08,29.95,0,0,0,0.00
2014-7-15,88,77,71,24,17,12,1,1,1,29.95,29.88,0,0,0,0.00
2014-7-16,82,73,69,62,23,10,50,13,1,30.03,29.89,0,0,0,0.00
2014-7-17,83,72,62,62,33,5,53,25,1,30.24,30.02,0,0,0,0.00
2014-7-18,82,72,60,62,35,3,54,28,1,30.38,30.25,0,0,0,0.00
2014-7-19,78,70,64,46,15,7,33,6,1,30.38,30.31,0,0,0,0.00
2014-7-20,75,70,66,15,11,8,1,1,1,30.30,30.23,0,0,0,0.00
2014-7-21,82,72,62,54,18,4,39,8,1,30.34,30.27,0,0,0,0.00
2014-7-22,87,75,64,63,32,6,45,20,1,30.34,30.20,0,0,0,0.00
2014-7-23,87,77,69,24,16,10,1,1,1,30.20,29.94,0,0,0,0.00
2014-7-24,80,74,70,49,20,11,35,9,1,30.03,29.94,0,0,0,0.00
2014-7-25,84,77,68,63,46,9,53,37,1,30.18,30.03,0,0,0,0.00
2014-7-26,79,72,65,30,13,7,18,2,1,30.16,30.05,0,0,0,0.00
2014-7-27,88,77,70,63,20,10,43,5,1,30.05,29.80,0,0,0,0.00
2014-7-28,83,76,68,64,31,10,52,19,1,29.84,29.69,0,0,0,0.00
2014-7-29,77,70,61,58,33,4,54,29,1,30.12,29.85,0,0,0,0.00
2014-7-30,82,71,61,60,37,4,53,31,1,30.20,30.10,0,0,0,0.00
2014-7-31,83,72,60,63,28,4,52,19,1,30.29,30.20,0,0,0,0.00
2014-8-1,83,74,70,21,14,11,3,1,1,30.36,30.29,0,0,0,0.00
2014-8-2,72,69,66,12,10,8,1,1,1,30.33,30.24,0,0,0,0.00
2014-8-3,75,70,66,15,11,8,1,1,1,30.26,30.18,0,0,0,0.00
2014-8-4,82,74,67,20,14,9,1,1,1,30.23,30.18,0,0,0,0.00
2014-8-5,89,77,67,66,29,9,50,16,1,30.20,30.05,0,0,0,0.00
2014-8-6,80,74,66,54,22,8,42,10,1,30.05,30.00,0,0,0,0.00
2014-8-7,82,73,62,62,36,4,55,29,1,30.15,30.04,0,0,0,0.00
2014-8-8,81,72,60,62,42,3,55,37,1,30.25,30.16,0,0,0,0.00
2014-8-9,86,74,61,66,38,4,53,29,1,30.26,30.21,0,0,0,0.00
2014-8-10,88,75,62,66,39,5,53,30,1,30.28,30.23,0,0,0,0.00
2014-8-11,86,74,63,65,30,6,53,20,1,30.30,30.23,0,0,0,0.00
2014-8-12,80,74,69,19,14,10,1,1,1,30.23,30.01,0,0,0,0.00
2014-8-13,83,74,69,58,20,10,43,8,1,29.98,29.81,0,0,0,0.00
2014-8-14,78,70,61,58,31,4,53,25,1,30.05,29.93,0,0,0,0.00
2014-8-15,75,66,57,56,28,1,55,26,1,30.14,30.03,0,0,0,0.00
2014-8-16,80,68,55,61,27,0,52,21,1,30.18,30.06,0,0,0,0.00
2014-8-17,80,71,62,46,18,5,40,9,1,30.07,29.97,0,0,0,0.00
2014-8-18,81,71,58,62,29,2,52,23,1,30.07,29.97,0,0,0,0.00
2014-8-19,82,72,62,56,18,5,45,9,1,30.07,29.99,0,0,0,0.00
2014-8-20,83,73,65,61,26,7,50,15,1,30.17,30.07,0,0,0,0.00
2014-8-21,83,74,66,54,23,8,41,11,1,30.21,30.15,0,0,0,0.00
2014-8-22,78,71,66,17,12,8,1,1,1,30.19,30.11,0,0,0,0.00
2014-8-23,72,70,68,12,11,9,1,1,1,30.25,30.15,0,0,0,0.00
2014-8-24,80,70,61,52,20,4,39,11,1,30.29,30.24,0,0,0,0.00
2014-8-25,86,72,58,65,29,2,52,20,1,30.32,30.25,0,0,0,0.00
2014-8-26,86,74,63,61,23,6,48,12,1,30.31,30.23,0,0,0,0.00
2014-8-27,89,75,63,68,30,6,52,18,1,30.24,30.02,0,0,0,0.00
2014-8-28,80,74,67,59,40,12,54,33,1,30.20,29.97,0,0,0,0.00
2014-8-29,78,69,58,59,39,2,54,38,1,30.39,30.20,0,0,0,0.00
2014-8-30,78,68,57,34,10,1,21,2,1,30.41,30.31,0,0,0,0.00
2014-8-31,93,78,71,60,19,12,34,3,1,30.31,30.12,0,0,0,0.00
2014-9-1,87,77,72,24,16,13,1,1,1,30.17,30.08,0,0,0,0.00
2014-9-2,90,80,74,59,26,14,35,10,1,30.10,29.97,0,0,0,0.00
2014-9-3,85,76,69,64,30,10,51,18,1,30.25,30.00,0,0,0,0.00
2014-9-4,87,75,63,67,30,6,52,19,1,30.34,30.26,0,0,0,0.00
2014-9-5,87,77,69,24,16,10,1,1,1,30.33,30.17,0,0,0,0.00
2014-9-6,94,81,73,70,26,12,48,9,1,30.17,29.98,0,0,0,0.00
2014-9-7,80,71,64,58,22,6,48,13,1,30.32,30.06,0,0,0,0.00
2014-9-8,76,70,64,55,30,6,48,23,1,30.45,30.32,0,0,0,0.00
2014-9-9,72,70,68,39,17,9,32,9,1,30.39,30.27,0,0,0,0.00
2014-9-10,74,69,65,14,10,7,1,1,1,30.27,30.17,0,0,0,0.00
2014-9-11,85,74,62,23,14,5,7,1,1,30.18,29.97,0,0,0,0.00
2014-9-12,76,69,62,56,25,4,50,19,1,30.30,30.06,0,0,0,0.00
2014-9-13,71,66,61,12,8,4,1,1,1,30.30,30.20,0,0,0,0.00
2014-9-14,70,61,51,49,14,-4,49,13,1,30.41,30.28,0,0,0,0.00
2014-9-15,73,61,50,55,19,-4,54,20,1,30.37,30.23,0,0,0,0.00
2014-9-16,68,60,54,10,3,-1,1,1,1,30.22,30.10,0,0,0,0.00
2014-9-17,72,62,52,54,21,-3,53,21,1,30.19,30.10,0,0,0,0.00
2014-9-18,76,63,50,56,24,-4,54,24,1,30.22,30.09,0,0,0,0.00
2014-9-19,66,62,58,28,8,2,25,5,1,30.50,30.22,0,0,0,0.00
2014-9-20,76,69,61,33,12,4,21,4,1,30.48,30.18,0,0,0,0.00
2014-9-21,74,70,66,14,11,8,1,1,1,30.18,29.76,0,0,0,0.00
2014-9-22,71,66,57,53,31,4,55,31,1,30.31,29.78,0,0,0,0.00
2014-9-23,71,59,48,54,28,-6,55,34,1,30.53,30.32,0,0,0,0.00
2014-9-24,72,63,53,30,8,-2,23,5,1,30.67,30.54,0,0,0,0.00
2014-9-25,67,62,59,13,5,2,13,1,1,30.57,30.34,0,0,0,0.00
2014-9-26,76,63,54,57,19,-1,54,17,1,30.34,30.29,0,0,0,0.00
2014-9-27,80,66,54,62,24,-1,54,20,1,30.35,30.29,0,0,0,0.00
2014-9-28,82,68,56,55,18,0,41,12,1,30.31,30.18,0,0,0,0.00
2014-9-29,78,68,60,51,12,4,39,4,1,30.17,30.05,0,0,0,0.00
2014-9-30,72,66,61,13,8,4,1,1,1,30.10,30.05,0,0,0,0.00
2014-10-1,63,62,60,6,4,4,1,1,1,30.19,30.09,0,0,0,0.00
2014-10-2,64,61,59,7,4,2,1,1,1,30.27,30.18,0,0,0,0.00
2014-10-3,70,64,58,38,11,2,32,7,1,30.25,29.97,0,0,0,0.00
2014-10-4,70,63,54,33,12,6,46,9,1,29.97,29.68,0,0,0,0.00
2014-10-5,61,52,44,45,34,10,57,50,24,30.04,29.86,0,0,0,0.00
2014-10-6,66,66,66,52,52,52,60,60,60,30.02,30.02,5,5,10,0.00
2014-11-26,41,37,34,41,37,34,99,99,98,30.09,29.71,94,7,94,5.79
2014-11-27,46,35,30,43,32,25,99,91,78,30.08,29.85,91,4,91,5.12
2014-11-28,43,30,20,28,22,12,97,71,45,30.28,30.07,91,4,91,2.56
2014-11-29,42,29,18,33,21,11,99,76,45,30.37,30.22,91,2,91,2.56
2014-11-30,58,49,37,49,39,33,88,69,46,30.22,30.07,97,3,97,2.09
2014-12-1,71,57,41,59,47,38,92,71,51,30.37,30.08,97,4,97,0.09
2014-12-11,34,32,31,33,31,30,99,97,94,29.90,29.78,89,3,89,0.03
2014-12-12,44,35,32,35,28,21,95,75,57,30.00,29.90,91,5,91,2.56
2014-12-13,45,38,32,32,28,26,80,69,52,30.00,29.91,92,6,93,7.68
2014-12-14,45,37,31,35,32,28,98,82,66,29.99,29.87,95,4,95,2.56
2014-12-15,56,35,26,44,31,26,99,88,55,30.13,29.99,96,3,96,7.68
2014-12-16,51,41,28,48,39,25,99,94,75,30.11,29.83,95,3,95,0.30
2014-12-17,54,48,43,48,45,40,99,90,64,29.88,29.80,97,5,97,3.25
2014-12-20,32,31,28,24,24,23,81,75,70,30.30,30.27,92,2,92,2.56
2014-12-21,44,34,29,30,26,17,81,75,68,30.33,30.27,91,4,91,7.68
2014-12-22,60,40,32,47,38,28,99,91,81,30.33,30.10,94,4,94,0.01
2014-12-23,51,48,46,51,47,46,99,99,99,30.11,30.02,95,7,95,0.25
2014-12-24,60,55,49,59,55,46,99,99,99,29.93,29.55,98,4,98,0.91
2014-12-25,61,51,40,61,42,28,99,73,45,30.16,29.52,98,8,98,0.15
2014-12-26,54,40,32,33,32,18,96,74,45,30.28,30.15,97,4,97,0.00
2014-12-27,59,43,32,41,36,31,99,78,42,30.28,30.10,98,3,98,5.12
2014-12-28,58,47,38,52,42,33,99,84,56,30.10,29.90,95,4,95,2.56
2014-12-29,46,40,32,36,26,17,81,58,37,30.25,30.05,94,4,94,2.56
2014-12-30,38,31,20,24,19,14,94,62,43,30.40,30.24,93,4,93,0.04
2014-12-31,35,25,18,20,13,5,98,65,36,30.39,30.20,95,4,95,0.00
2015-1-1,51,31,21,22,15,5,73,53,32,30.21,30.01,95,5,95,5.12
2015-1-2,54,34,25,23,21,17,88,62,41,30.45,30.05,93,5,93,2.56